Time;durP1;ratioP1;P1;durP2;ratioP2;P2;SDS_P1;SDS_P2;PMS_P1;PMS_P2;Temp;Humidity;BMP_temperature;BMP_pressure;BME280_temperature;BME280_humidity;BME280_pressure;Samples;Min_cycle;Max_cycle;Signal;HPM_P1;HPM_P2
2022/07/07 00:01:22;;;;;;;;;;;26.00;41.70;;;;;;8468963;28;19908;-44
2022/07/07 00:05:22;;;;;;;;;;;26.00;41.70;;;;;;8468518;28;20288;-44
2022/07/07 00:09:23;;;;;;;;;;;26.00;41.70;;;;;;8469141;28;19914;-44
2022/07/07 00:13:23;;;;;;;;;;;26.00;41.70;;;;;;8468526;28;19920;-43
2022/07/07 00:17:24;;;;;;;;;;;25.90;41.60;;;;;;8468590;28;19989;-43
2022/07/07 00:21:25;;;;;;;;;;;26.00;41.70;;;;;;8468414;28;19953;-44
2022/07/07 00:25:25;;;;;;;;;;;25.90;41.70;;;;;;8467857;28;19908;-44
2022/07/07 00:29:26;;;;;;;;;;;25.90;41.60;;;;;;8467461;28;19907;-43
2022/07/07 00:33:27;;;;;;;;;;;25.90;41.70;;;;;;8468369;28;19919;-43
2022/07/07 00:37:28;;;;;;;;;;;25.90;41.70;;;;;;8467289;28;19961;-43
2022/07/07 00:41:28;;;;;;;;;;;25.90;42.30;;;;;;8467798;28;19916;-43
2022/07/07 00:45:28;;;;;;;;;;;25.90;41.70;;;;;;8467816;28;19954;-45
2022/07/07 00:49:29;;;;;;;;;;;25.90;41.70;;;;;;8467056;28;19954;-43
2022/07/07 00:53:30;;;;;;;;;;;25.90;41.70;;;;;;8467276;28;19923;-44
2022/07/07 00:57:30;;;;;;;;;;;25.80;41.70;;;;;;8467411;28;19918;-45
2022/07/07 01:01:30;;;;;;;;;;;25.90;41.70;;;;;;8466521;28;19912;-43
2022/07/07 01:05:31;;;;;;;;;;;25.90;41.80;;;;;;8467030;28;19915;-44
2022/07/07 01:09:32;;;;;;;;;;;25.80;41.70;;;;;;8432618;28;19907;-44
2022/07/07 01:13:32;;;;;;;;;;;25.80;41.70;;;;;;8466406;28;20276;-43
2022/07/07 01:17:33;;;;;;;;;;;25.80;41.70;;;;;;8466796;28;19918;-43
2022/07/07 01:21:36;;;;;;;;;;;25.80;41.70;;;;;;8466706;28;19911;-45
2022/07/07 01:25:37;;;;;;;;;;;25.70;41.70;;;;;;8465704;28;19908;-43
2022/07/07 01:29:38;;;;;;;;;;;25.70;41.70;;;;;;8466158;28;19964;-43
2022/07/07 01:33:39;;;;;;;;;;;25.70;41.70;;;;;;8466328;28;19915;-44
2022/07/07 01:37:39;;;;;;;;;;;25.70;41.70;;;;;;8465505;28;19912;-43
2022/07/07 01:41:40;;;;;;;;;;;25.70;41.70;;;;;;8464733;28;20284;-43
2022/07/07 01:45:40;;;;;;;;;;;25.70;41.70;;;;;;8465483;28;19919;-42
2022/07/07 01:49:41;;;;;;;;;;;25.70;41.70;;;;;;8462341;28;20383;-44
2022/07/07 01:53:41;;;;;;;;;;;25.70;41.80;;;;;;8431976;28;19958;-43
2022/07/07 01:57:42;;;;;;;;;;;25.60;42.20;;;;;;8431638;28;20073;-43
2022/07/07 02:01:42;;;;;;;;;;;25.60;41.60;;;;;;8431187;28;19920;-42
2022/07/07 02:05:42;;;;;;;;;;;25.60;41.70;;;;;;8431992;28;19919;-43
2022/07/07 02:09:43;;;;;;;;;;;25.60;41.70;;;;;;8431104;28;19954;-43
2022/07/07 02:13:48;;;;;;;;;;;25.60;41.60;;;;;;8431130;28;19920;-43
2022/07/07 02:17:48;;;;;;;;;;;25.60;41.70;;;;;;8430993;28;19958;-43
2022/07/07 02:21:49;;;;;;;;;;;25.60;41.70;;;;;;8449632;28;19911;-43
2022/07/07 02:25:49;;;;;;;;;;;25.60;41.70;;;;;;8463991;28;20367;-42
2022/07/07 02:29:49;;;;;;;;;;;25.50;41.70;;;;;;8464268;28;19908;-42
2022/07/07 02:33:50;;;;;;;;;;;25.50;41.70;;;;;;8464679;28;20257;-42
2022/07/07 02:37:50;;;;;;;;;;;25.50;41.70;;;;;;8463642;28;19912;-42
2022/07/07 02:41:51;;;;;;;;;;;25.50;41.70;;;;;;8463954;28;20284;-43
2022/07/07 02:45:51;;;;;;;;;;;25.50;41.70;;;;;;8464131;28;20265;-43
2022/07/07 02:49:52;;;;;;;;;;;25.50;41.80;;;;;;8462876;28;19922;-42
2022/07/07 02:53:52;;;;;;;;;;;25.50;41.70;;;;;;8464377;28;19919;-42
2022/07/07 02:57:53;;;;;;;;;;;25.40;41.70;;;;;;8463616;28;19911;-42
2022/07/07 03:01:53;;;;;;;;;;;25.40;41.70;;;;;;8463013;28;19911;-42
2022/07/07 03:05:54;;;;;;;;;;;25.40;41.70;;;;;;8463680;28;20356;-43
2022/07/07 03:09:54;;;;;;;;;;;25.40;41.70;;;;;;8463481;28;19914;-43
2022/07/07 03:13:54;;;;;;;;;;;25.40;41.70;;;;;;8463077;28;19911;-42
2022/07/07 03:17:55;;;;;;;;;;;25.40;41.70;;;;;;8463266;28;19951;-42
2022/07/07 03:21:56;;;;;;;;;;;25.40;41.70;;;;;;8463286;28;19912;-43
2022/07/07 03:25:56;;;;;;;;;;;25.40;41.70;;;;;;8462645;28;19911;-42
2022/07/07 03:29:58;;;;;;;;;;;25.30;41.60;;;;;;8463352;28;20399;-43
2022/07/07 03:33:59;;;;;;;;;;;25.30;41.70;;;;;;8462949;28;19922;-42
2022/07/07 03:37:59;;;;;;;;;;;25.30;41.70;;;;;;8462524;28;19920;-43
2022/07/07 03:41:59;;;;;;;;;;;25.30;41.70;;;;;;8462894;28;19912;-42
2022/07/07 03:46:00;;;;;;;;;;;25.30;41.70;;;;;;8463430;28;19991;-42
2022/07/07 03:50:00;;;;;;;;;;;25.30;41.70;;;;;;8462564;28;19923;-44
2022/07/07 03:54:01;;;;;;;;;;;25.30;41.70;;;;;;8462742;28;19957;-43
2022/07/07 03:58:01;;;;;;;;;;;25.20;41.70;;;;;;8462620;28;19918;-43
2022/07/07 04:02:02;;;;;;;;;;;25.20;41.60;;;;;;8457389;28;19912;-42
2022/07/07 04:06:02;;;;;;;;;;;25.20;41.60;;;;;;8414478;28;19920;-43
2022/07/07 04:10:03;;;;;;;;;;;25.20;41.70;;;;;;8469341;28;19915;-43
2022/07/07 04:14:05;;;;;;;;;;;25.20;41.70;;;;;;8468420;28;19912;-43
2022/07/07 04:18:05;;;;;;;;;;;25.20;41.70;;;;;;8468537;28;19994;-43
2022/07/07 04:22:05;;;;;;;;;;;25.20;41.70;;;;;;8468400;28;19923;-43
2022/07/07 04:26:06;;;;;;;;;;;25.20;41.60;;;;;;8467768;28;19965;-44
2022/07/07 04:30:07;;;;;;;;;;;25.10;41.60;;;;;;8468398;28;19920;-44
2022/07/07 04:34:07;;;;;;;;;;;25.10;41.60;;;;;;8467952;28;19951;-44
2022/07/07 04:38:08;;;;;;;;;;;25.10;41.60;;;;;;8467414;28;19911;-42
2022/07/07 04:42:08;;;;;;;;;;;25.10;41.70;;;;;;8467697;28;20316;-44
2022/07/07 04:46:09;;;;;;;;;;;25.10;41.60;;;;;;8467581;28;20261;-45
2022/07/07 04:50:10;;;;;;;;;;;25.10;41.70;;;;;;8467081;28;19985;-43
2022/07/07 04:54:10;;;;;;;;;;;25.10;41.60;;;;;;8467380;28;19919;-43
2022/07/07 04:58:11;;;;;;;;;;;25.10;41.60;;;;;;8467190;28;19912;-43
2022/07/07 05:02:11;;;;;;;;;;;25.10;41.70;;;;;;8466632;28;19964;-43
2022/07/07 05:06:12;;;;;;;;;;;25.00;41.60;;;;;;8467097;28;20118;-44
2022/07/07 05:10:13;;;;;;;;;;;25.00;41.50;;;;;;8466865;28;20414;-43
2022/07/07 05:14:13;;;;;;;;;;;25.10;41.60;;;;;;8466007;28;19912;-44
2022/07/07 05:18:17;;;;;;;;;;;25.00;41.60;;;;;;8466744;28;19919;-42
2022/07/07 05:22:17;;;;;;;;;;;25.00;41.50;;;;;;8466470;28;19912;-43
2022/07/07 05:26:17;;;;;;;;;;;25.10;41.50;;;;;;8465844;28;20322;-42
2022/07/07 05:30:19;;;;;;;;;;;25.20;41.30;;;;;;8466143;28;19917;-43
2022/07/07 05:34:19;;;;;;;;;;;25.30;41.20;;;;;;8466281;28;19991;-44
2022/07/07 05:38:20;;;;;;;;;;;25.40;41.00;;;;;;8465141;28;20376;-44
2022/07/07 05:42:20;;;;;;;;;;;25.40;40.90;;;;;;8465344;28;19915;-43
2022/07/07 05:46:21;;;;;;;;;;;25.40;40.90;;;;;;8465517;28;19911;-43
2022/07/07 05:50:21;;;;;;;;;;;25.30;40.90;;;;;;8465104;28;20316;-44
2022/07/07 05:54:21;;;;;;;;;;;25.30;40.90;;;;;;8465235;28;19918;-45
2022/07/07 05:58:22;;;;;;;;;;;25.30;41.00;;;;;;8465320;28;19912;-43
2022/07/07 06:02:22;;;;;;;;;;;25.20;41.00;;;;;;8464715;28;19919;-44
2022/07/07 06:06:23;;;;;;;;;;;25.20;41.10;;;;;;8465289;28;20470;-44
2022/07/07 06:10:23;;;;;;;;;;;25.10;41.20;;;;;;8464542;28;19922;-44
2022/07/07 06:14:24;;;;;;;;;;;25.10;41.20;;;;;;8465083;28;19915;-46
2022/07/07 06:18:24;;;;;;;;;;;25.10;41.20;;;;;;8464581;28;19916;-44
2022/07/07 06:22:26;;;;;;;;;;;25.10;41.30;;;;;;8464076;28;19915;-44
2022/07/07 06:26:26;;;;;;;;;;;25.10;41.30;;;;;;8463865;28;20002;-44
2022/07/07 06:30:27;;;;;;;;;;;25.00;41.30;;;;;;8464445;28;19923;-43
2022/07/07 06:34:27;;;;;;;;;;;25.00;41.30;;;;;;8463556;28;19969;-43
2022/07/07 06:38:28;;;;;;;;;;;25.00;41.30;;;;;;8464020;28;19955;-42
2022/07/07 06:42:28;;;;;;;;;;;25.00;41.30;;;;;;8464090;28;19912;-43
2022/07/07 06:46:29;;;;;;;;;;;25.00;41.30;;;;;;8463275;28;19921;-43
2022/07/07 06:50:29;;;;;;;;;;;25.00;41.30;;;;;;8464122;28;20006;-42
2022/07/07 06:54:29;;;;;;;;;;;25.00;41.30;;;;;;8463640;28;19999;-42
2022/07/07 06:58:30;;;;;;;;;;;25.00;41.30;;;;;;8462934;28;19911;-43
2022/07/07 07:02:30;;;;;;;;;;;25.00;41.30;;;;;;8463423;28;19937;-43
2022/07/07 07:06:31;;;;;;;;;;;25.00;41.30;;;;;;8463390;28;20006;-43
2022/07/07 07:10:31;;;;;;;;;;;25.00;41.30;;;;;;8433056;28;20377;-44
2022/07/07 07:14:32;;;;;;;;;;;25.00;41.30;;;;;;8447092;28;19915;-42
2022/07/07 07:18:32;;;;;;;;;;;25.00;41.30;;;;;;8463366;28;19912;-42
2022/07/07 07:22:36;;;;;;;;;;;25.00;41.30;;;;;;8462999;28;19911;-42
2022/07/07 07:26:36;;;;;;;;;;;25.00;41.30;;;;;;8463203;28;19949;-43
2022/07/07 07:30:37;;;;;;;;;;;25.00;41.30;;;;;;8463121;28;19981;-42
2022/07/07 07:34:37;;;;;;;;;;;25.00;41.30;;;;;;8462364;28;20033;-43
2022/07/07 07:38:39;;;;;;;;;;;25.00;41.40;;;;;;8465912;28;19915;-43
2022/07/07 07:42:40;;;;;;;;;;;25.00;41.40;;;;;;8469840;28;19965;-42
2022/07/07 07:46:40;;;;;;;;;;;24.90;41.30;;;;;;8469294;28;19912;-43
2022/07/07 07:50:41;;;;;;;;;;;25.00;41.40;;;;;;8469326;28;19920;-44
2022/07/07 07:54:41;;;;;;;;;;;25.00;41.30;;;;;;8469294;28;19918;-42
2022/07/07 07:58:42;;;;;;;;;;;25.00;41.30;;;;;;8468800;28;19970;-43
2022/07/07 08:02:43;;;;;;;;;;;25.00;41.30;;;;;;8469059;28;19922;-43
2022/07/07 08:06:44;;;;;;;;;;;25.00;41.30;;;;;;8469628;28;20380;-44
2022/07/07 08:10:44;;;;;;;;;;;25.00;41.30;;;;;;8468279;28;19919;-43
2022/07/07 08:14:44;;;;;;;;;;;25.10;41.30;;;;;;8468791;28;19938;-44
2022/07/07 08:18:45;;;;;;;;;;;25.10;41.30;;;;;;8468626;28;19911;-43
2022/07/07 08:22:45;;;;;;;;;;;25.10;41.30;;;;;;8468004;28;19911;-43
2022/07/07 08:26:46;;;;;;;;;;;25.10;41.30;;;;;;8468773;28;19907;-43
2022/07/07 08:30:46;;;;;;;;;;;25.10;41.30;;;;;;8468339;28;20359;-43
2022/07/07 08:34:47;;;;;;;;;;;25.10;41.30;;;;;;8467474;28;20292;-43
2022/07/07 08:38:47;;;;;;;;;;;25.20;41.30;;;;;;8468204;28;19912;-43
2022/07/07 08:42:48;;;;;;;;;;;25.20;41.20;;;;;;8467713;28;19907;-43
2022/07/07 08:46:49;;;;;;;;;;;25.20;41.20;;;;;;8467381;28;19912;-42
2022/07/07 08:50:49;;;;;;;;;;;25.20;41.10;;;;;;8466918;28;20455;-43
2022/07/07 08:54:50;;;;;;;;;;;25.20;41.10;;;;;;8467508;28;19919;-42
2022/07/07 08:58:51;;;;;;;;;;;25.20;41.10;;;;;;8466833;28;19922;-43
2022/07/07 09:02:58;;;;;;;;;;;25.30;41.20;;;;;;8467197;28;19988;-42
2022/07/07 09:07:00;;;;;;;;;;;25.30;41.20;;;;;;8467384;28;19966;-42
2022/07/07 09:11:01;;;;;;;;;;;25.30;41.10;;;;;;8466338;28;19989;-43
2022/07/07 09:15:03;;;;;;;;;;;25.30;41.10;;;;;;8466926;28;19919;-43
2022/07/07 09:19:06;;;;;;;;;;;25.40;41.10;;;;;;8466805;28;19972;-43
2022/07/07 09:23:06;;;;;;;;;;;25.40;41.10;;;;;;8466003;28;19938;-43
2022/07/07 09:27:07;;;;;;;;;;;25.40;41.00;;;;;;8466830;28;19908;-44
2022/07/07 09:31:07;;;;;;;;;;;25.40;41.10;;;;;;8466054;28;19926;-43
2022/07/07 09:38:13;;;;;;;;;;;25.40;41.00;;;;;;8447132;28;20351;-42
2022/07/07 09:39:41;;;;;;;;;;;25.40;41.00;;;;;;8465892;28;19912;-42
2022/07/07 09:43:46;;;;;;;;;;;25.40;40.90;;;;;;8465410;28;19912;-44
2022/07/07 09:47:46;;;;;;;;;;;25.40;40.90;;;;;;8465977;28;20329;-42
2022/07/07 09:51:46;;;;;;;;;;;25.50;40.90;;;;;;8465956;28;19923;-42
2022/07/07 09:55:59;;;;;;;;;;;25.50;41.00;;;;;;8465023;28;19912;-42
2022/07/07 10:00:00;;;;;;;;;;;25.50;40.90;;;;;;8464440;28;19924;-42
2022/07/07 10:04:02;;;;;;;;;;;25.50;41.00;;;;;;8465332;28;19952;-42
2022/07/07 10:08:02;;;;;;;;;;;25.50;40.90;;;;;;8464540;28;19920;-42
2022/07/07 10:12:03;;;;;;;;;;;25.50;40.90;;;;;;8409629;28;20327;-45
2022/07/07 10:16:05;;;;;;;;;;;25.50;40.90;;;;;;8453997;28;20308;-41
2022/07/07 10:20:06;;;;;;;;;;;25.50;40.80;;;;;;8464114;28;20002;-42
2022/07/07 10:24:06;;;;;;;;;;;25.60;40.90;;;;;;8464854;28;19918;-42
2022/07/07 10:28:07;;;;;;;;;;;25.50;40.90;;;;;;8464451;28;19926;-44
2022/07/07 10:32:08;;;;;;;;;;;25.50;40.90;;;;;;8463972;28;20304;-42
2022/07/07 10:36:09;;;;;;;;;;;25.50;41.00;;;;;;8464097;28;19922;-42
2022/07/07 10:40:35;;;;;;;;;;;25.50;40.90;;;;;;8463962;28;19915;-42
2022/07/07 10:44:37;;;;;;;;;;;25.50;41.00;;;;;;8458769;28;19920;-44
2022/07/07 10:48:42;;;;;;;;;;;25.50;41.00;;;;;;8464032;28;20328;-43
2022/07/07 10:52:42;;;;;;;;;;;25.50;41.00;;;;;;8463489;28;19932;-42
2022/07/07 10:57:06;;;;;;;;;;;25.60;41.10;;;;;;8463673;28;19946;-43
2022/07/07 11:01:09;;;;;;;;;;;25.60;41.20;;;;;;8463502;28;19915;-44
2022/07/07 11:05:10;;;;;;;;;;;25.60;41.10;;;;;;8462970;28;19912;-43
2022/07/07 11:09:10;;;;;;;;;;;25.60;41.10;;;;;;8463487;28;19911;-43
2022/07/07 11:13:16;;;;;;;;;;;25.60;41.10;;;;;;8463162;28;19969;-43
2022/07/07 11:17:22;;;;;;;;;;;25.60;41.10;;;;;;8444995;28;19969;-43
2022/07/07 11:21:38;;;;;;;;;;;25.70;41.20;;;;;;8463420;28;19911;-43
2022/07/07 11:25:39;;;;;;;;;;;25.70;41.10;;;;;;8462727;28;19990;-43
2022/07/07 11:29:42;;;;;;;;;;;25.70;41.10;;;;;;8463099;28;19916;-44
2022/07/07 11:33:48;;;;;;;;;;;25.70;41.00;;;;;;8463022;28;19915;-44
2022/07/07 11:37:49;;;;;;;;;;;25.70;41.00;;;;;;8462893;28;19940;-44
2022/07/07 11:41:49;;;;;;;;;;;25.70;41.00;;;;;;8462902;28;19916;-44
2022/07/07 11:45:50;;;;;;;;;;;25.80;41.10;;;;;;8463054;28;20287;-43
2022/07/07 11:49:53;;;;;;;;;;;25.80;41.10;;;;;;8462498;28;19919;-45
2022/07/07 11:53:58;;;;;;;;;;;25.80;40.90;;;;;;8462708;28;19926;-44
2022/07/07 11:58:00;;;;;;;;;;;25.90;41.00;;;;;;8463116;28;19908;-45
2022/07/07 12:02:01;;;;;;;;;;;25.90;41.00;;;;;;8462155;28;19912;-44
2022/07/07 12:06:02;;;;;;;;;;;25.90;40.90;;;;;;8462387;28;19911;-44
2022/07/07 12:10:02;;;;;;;;;;;25.90;40.90;;;;;;8462587;28;20416;-44
2022/07/07 12:14:03;;;;;;;;;;;25.90;40.80;;;;;;8462033;28;19912;-42
2022/07/07 12:18:04;;;;;;;;;;;25.90;40.80;;;;;;8462468;28;19907;-43
2022/07/07 12:22:05;;;;;;;;;;;25.90;40.80;;;;;;8462108;28;20463;-43
2022/07/07 12:26:15;;;;;;;;;;;25.90;40.90;;;;;;8466797;28;19957;-44
2022/07/07 12:30:16;;;;;;;;;;;25.90;41.00;;;;;;8467983;28;19912;-44
2022/07/07 12:34:18;;;;;;;;;;;25.90;41.00;;;;;;8468014;28;19924;-43
2022/07/07 12:38:33;;;;;;;;;;;25.90;41.00;;;;;;8467478;28;20311;-44
2022/07/07 12:42:34;;;;;;;;;;;25.90;41.00;;;;;;8467756;28;19912;-44
2022/07/07 12:46:35;;;;;;;;;;;25.90;41.00;;;;;;8467186;28;20027;-42
2022/07/07 12:50:36;;;;;;;;;;;25.90;41.00;;;;;;8467731;28;20019;-42
2022/07/07 12:54:36;;;;;;;;;;;25.90;41.00;;;;;;8467530;28;19923;-42
2022/07/07 12:58:50;;;;;;;;;;;25.90;41.00;;;;;;8467009;28;20426;-43
2022/07/07 13:02:50;;;;;;;;;;;25.90;41.00;;;;;;8467205;28;19915;-43
2022/07/07 13:06:51;;;;;;;;;;;25.90;41.00;;;;;;8447996;28;20448;-44
2022/07/07 13:10:52;;;;;;;;;;;25.90;41.00;;;;;;8449076;28;19920;-43
2022/07/07 13:14:52;;;;;;;;;;;25.90;41.00;;;;;;8466775;28;20284;-42
2022/07/07 13:18:53;;;;;;;;;;;25.90;41.00;;;;;;8467063;28;20323;-43
2022/07/07 13:22:53;;;;;;;;;;;25.90;41.00;;;;;;8465969;28;19951;-44
2022/07/07 13:26:54;;;;;;;;;;;25.90;41.10;;;;;;8466351;28;19995;-43
2022/07/07 13:30:55;;;;;;;;;;;25.90;41.00;;;;;;8465954;28;19920;-42
2022/07/07 13:34:55;;;;;;;;;;;25.90;41.00;;;;;;8465119;28;19961;-43
2022/07/07 13:38:56;;;;;;;;;;;25.90;41.00;;;;;;8466259;28;19990;-43
2022/07/07 13:42:56;;;;;;;;;;;25.90;41.10;;;;;;8465804;28;20310;-43
2022/07/07 13:46:57;;;;;;;;;;;25.90;41.00;;;;;;8465304;28;20360;-43
2022/07/07 13:50:57;;;;;;;;;;;25.90;41.10;;;;;;8465484;28;19926;-43
2022/07/07 13:54:58;;;;;;;;;;;25.90;41.10;;;;;;8465703;28;19908;-43
2022/07/07 13:58:58;;;;;;;;;;;25.90;41.10;;;;;;8465278;28;19912;-43
2022/07/07 14:02:59;;;;;;;;;;;25.90;41.10;;;;;;8465242;28;19915;-43
2022/07/07 14:06:59;;;;;;;;;;;25.90;41.10;;;;;;8465339;28;19916;-43
2022/07/07 14:10:59;;;;;;;;;;;25.90;41.10;;;;;;8450342;28;19928;-43
2022/07/07 14:15:00;;;;;;;;;;;25.90;41.10;;;;;;8431404;28;19919;-43
2022/07/07 14:19:00;;;;;;;;;;;25.90;41.10;;;;;;8431373;28;19919;-43
2022/07/07 14:23:01;;;;;;;;;;;25.90;41.10;;;;;;8430410;28;19919;-43
2022/07/07 14:27:02;;;;;;;;;;;25.90;41.10;;;;;;8431038;28;19959;-43
2022/07/07 14:31:02;;;;;;;;;;;25.90;41.20;;;;;;8430446;28;20014;-44
2022/07/07 14:35:03;;;;;;;;;;;25.90;41.10;;;;;;8430259;28;19916;-42
2022/07/07 14:39:04;;;;;;;;;;;25.90;41.10;;;;;;8407481;28;19912;-42
2022/07/07 14:43:04;;;;;;;;;;;25.90;41.10;;;;;;8434148;28;19912;-43
2022/07/07 14:47:05;;;;;;;;;;;25.90;41.10;;;;;;8459264;28;20289;-44
2022/07/07 14:51:05;;;;;;;;;;;25.90;41.10;;;;;;8438372;28;20360;-44
2022/07/07 14:55:06;;;;;;;;;;;25.90;41.10;;;;;;8435452;28;20061;-43
2022/07/07 14:59:07;;;;;;;;;;;25.90;41.10;;;;;;8426343;28;20369;-44
2022/07/07 15:03:07;;;;;;;;;;;25.90;41.10;;;;;;8422435;28;19913;-44
2022/07/07 15:07:08;;;;;;;;;;;25.90;41.10;;;;;;8407714;28;19912;-43
2022/07/07 15:11:09;;;;;;;;;;;25.90;41.10;;;;;;8398289;28;20007;-44
2022/07/07 15:15:09;;;;;;;;;;;25.90;41.20;;;;;;8404819;28;19908;-44
2022/07/07 15:19:10;;;;;;;;;;;25.90;41.20;;;;;;8424413;28;20312;-43
2022/07/07 15:23:10;;;;;;;;;;;25.90;41.20;;;;;;8441316;28;20364;-43
2022/07/07 15:27:11;;;;;;;;;;;25.90;41.80;;;;;;8417726;28;19913;-43
2022/07/07 15:31:12;;;;;;;;;;;25.90;41.20;;;;;;8448563;28;19966;-43
2022/07/07 15:35:12;;;;;;;;;;;25.90;41.30;;;;;;8433952;28;19924;-43
2022/07/07 15:39:13;;;;;;;;;;;25.80;41.20;;;;;;8410757;28;19966;-43
2022/07/07 15:43:13;;;;;;;;;;;25.90;41.20;;;;;;8411985;28;19912;-43
2022/07/07 15:47:14;;;;;;;;;;;25.80;41.20;;;;;;8423398;28;19916;-43
2022/07/07 15:51:16;;;;;;;;;;;25.90;41.30;;;;;;8429517;28;20027;-43
2022/07/07 15:55:16;;;;;;;;;;;25.90;41.30;;;;;;8428812;28;19931;-42
2022/07/07 15:59:17;;;;;;;;;;;25.80;41.20;;;;;;8431260;28;19932;-43
2022/07/07 16:03:17;;;;;;;;;;;25.90;41.20;;;;;;8435293;28;19912;-43
2022/07/07 16:07:18;;;;;;;;;;;25.90;41.30;;;;;;8435137;28;19965;-43
2022/07/07 16:11:18;;;;;;;;;;;25.90;41.20;;;;;;8433786;28;19927;-43
2022/07/07 16:15:19;;;;;;;;;;;25.90;41.20;;;;;;8435010;28;19908;-43
2022/07/07 16:19:19;;;;;;;;;;;25.90;41.20;;;;;;8435239;28;19911;-43
2022/07/07 16:23:20;;;;;;;;;;;25.90;41.10;;;;;;8434449;28;19927;-44
2022/07/07 16:27:20;;;;;;;;;;;25.90;41.10;;;;;;8434763;28;19919;-43
2022/07/07 16:31:21;;;;;;;;;;;25.90;41.10;;;;;;8434464;28;19931;-44
2022/07/07 16:35:21;;;;;;;;;;;25.90;41.20;;;;;;8433788;28;19916;-43
2022/07/07 16:39:23;;;;;;;;;;;25.90;41.20;;;;;;8434873;28;19912;-45
2022/07/07 16:43:23;;;;;;;;;;;25.90;41.10;;;;;;8433606;28;19939;-43
2022/07/07 16:47:24;;;;;;;;;;;25.90;41.10;;;;;;8433905;28;19912;-44
2022/07/07 16:51:24;;;;;;;;;;;25.90;41.10;;;;;;8433967;28;19916;-44
2022/07/07 16:55:25;;;;;;;;;;;25.90;41.20;;;;;;8433394;28;20413;-43
2022/07/07 16:59:25;;;;;;;;;;;25.90;41.20;;;;;;8467064;28;19946;-43
2022/07/07 17:03:27;;;;;;;;;;;25.90;41.20;;;;;;8467172;28;19953;-45
2022/07/07 17:07:29;;;;;;;;;;;25.90;41.20;;;;;;8466767;28;19907;-43
2022/07/07 17:11:29;;;;;;;;;;;25.90;41.20;;;;;;8466607;28;20326;-43
2022/07/07 17:15:30;;;;;;;;;;;25.90;41.30;;;;;;8466949;28;19939;-44
2022/07/07 17:19:30;;;;;;;;;;;25.90;41.20;;;;;;8466295;28;19916;-44
2022/07/07 17:23:31;;;;;;;;;;;25.90;41.30;;;;;;8466464;28;19912;-42
2022/07/07 17:27:32;;;;;;;;;;;25.90;41.30;;;;;;8466466;28;19915;-43
2022/07/07 17:31:32;;;;;;;;;;;25.80;41.20;;;;;;8465761;28;19930;-43
2022/07/07 17:35:32;;;;;;;;;;;25.80;41.20;;;;;;8466430;28;20376;-43
2022/07/07 17:39:33;;;;;;;;;;;25.80;41.30;;;;;;8465971;28;19926;-44
2022/07/07 17:43:33;;;;;;;;;;;25.80;41.30;;;;;;8465432;28;19958;-45
2022/07/07 17:47:34;;;;;;;;;;;25.90;41.30;;;;;;8466202;28;19919;-43
2022/07/07 17:51:34;;;;;;;;;;;25.80;41.30;;;;;;8465789;28;19969;-43
2022/07/07 17:55:35;;;;;;;;;;;25.80;41.30;;;;;;8465400;28;19912;-43
2022/07/07 17:59:36;;;;;;;;;;;25.80;41.30;;;;;;8465814;28;20414;-44
2022/07/07 18:03:36;;;;;;;;;;;25.80;41.30;;;;;;8446945;28;19926;-44
2022/07/07 18:07:37;;;;;;;;;;;25.80;41.30;;;;;;8464751;28;19974;-44
2022/07/07 18:11:37;;;;;;;;;;;25.80;41.30;;;;;;8465268;28;19916;-43
2022/07/07 18:15:38;;;;;;;;;;;25.80;41.30;;;;;;8446939;28;19920;-43
2022/07/07 18:19:38;;;;;;;;;;;25.80;41.30;;;;;;8464432;28;19912;-43
2022/07/07 18:23:40;;;;;;;;;;;25.80;41.30;;;;;;8463918;28;19934;-46
2022/07/07 18:27:40;;;;;;;;;;;25.80;41.30;;;;;;8464433;28;19951;-43
2022/07/07 18:31:41;;;;;;;;;;;25.70;41.30;;;;;;8464065;28;20303;-44
2022/07/07 18:35:41;;;;;;;;;;;25.80;41.40;;;;;;8464897;28;20007;-42
2022/07/07 18:39:42;;;;;;;;;;;25.80;41.40;;;;;;8464442;28;19912;-45
2022/07/07 18:43:42;;;;;;;;;;;25.70;41.30;;;;;;8463711;28;19967;-44
2022/07/07 18:47:43;;;;;;;;;;;25.70;41.30;;;;;;8464032;28;20300;-43
2022/07/07 18:51:43;;;;;;;;;;;25.80;41.40;;;;;;8463638;28;19923;-45
2022/07/07 18:55:45;;;;;;;;;;;25.70;41.40;;;;;;8463623;28;19911;-43
2022/07/07 18:59:45;;;;;;;;;;;25.70;41.40;;;;;;8462943;28;20429;-47
2022/07/07 19:03:46;;;;;;;;;;;25.70;41.40;;;;;;8462354;28;19912;-44
2022/07/07 19:07:47;;;;;;;;;;;25.70;41.40;;;;;;8463135;28;19919;-43
2022/07/07 19:11:47;;;;;;;;;;;25.70;41.50;;;;;;8463625;28;19920;-44
2022/07/07 19:15:48;;;;;;;;;;;25.70;41.50;;;;;;8463669;28;20033;-44
2022/07/07 19:19:48;;;;;;;;;;;25.60;41.40;;;;;;8462995;28;19912;-46
2022/07/07 19:23:49;;;;;;;;;;;25.60;41.40;;;;;;8463728;28;19916;-43
2022/07/07 19:27:50;;;;;;;;;;;25.60;41.50;;;;;;8462856;28;19914;-47
2022/07/07 19:31:50;;;;;;;;;;;25.70;41.60;;;;;;8462727;28;19919;-43
2022/07/07 19:35:51;;;;;;;;;;;25.60;41.50;;;;;;8470692;28;19915;-42
2022/07/07 19:39:51;;;;;;;;;;;25.60;41.50;;;;;;8470045;28;19912;-44
2022/07/07 19:43:52;;;;;;;;;;;25.60;41.50;;;;;;8469304;28;19930;-43
2022/07/07 19:47:55;;;;;;;;;;;25.60;41.50;;;;;;8469633;28;19931;-44
2022/07/07 19:51:56;;;;;;;;;;;25.60;41.50;;;;;;8469470;28;19970;-44
2022/07/07 19:55:57;;;;;;;;;;;25.60;41.50;;;;;;8469124;28;20417;-44
2022/07/07 19:59:57;;;;;;;;;;;25.60;41.60;;;;;;8469241;28;20011;-44
2022/07/07 20:03:57;;;;;;;;;;;25.60;41.60;;;;;;8469178;28;19930;-43
2022/07/07 20:07:59;;;;;;;;;;;25.50;41.50;;;;;;8468585;28;20381;-44
2022/07/07 20:11:59;;;;;;;;;;;25.60;41.60;;;;;;8468753;28;19968;-43
2022/07/07 20:16:00;;;;;;;;;;;25.60;41.60;;;;;;8469193;28;20364;-43
2022/07/07 20:20:01;;;;;;;;;;;25.60;41.60;;;;;;8468189;28;19915;-43
2022/07/07 20:24:02;;;;;;;;;;;25.50;41.50;;;;;;8468782;28;20284;-43
2022/07/07 20:28:02;;;;;;;;;;;25.50;41.60;;;;;;8468465;28;19914;-44
2022/07/07 20:32:03;;;;;;;;;;;25.50;41.60;;;;;;8467761;28;20300;-44
2022/07/07 20:36:04;;;;;;;;;;;25.50;41.60;;;;;;8468266;28;19998;-43
2022/07/07 20:40:05;;;;;;;;;;;25.50;41.60;;;;;;8468216;28;20329;-44
2022/07/07 20:44:05;;;;;;;;;;;25.50;41.60;;;;;;8466591;28;19915;-42
2022/07/07 20:48:06;;;;;;;;;;;25.50;41.60;;;;;;8467988;28;19957;-43
2022/07/07 20:52:07;;;;;;;;;;;25.40;41.60;;;;;;8467782;28;20380;-43
2022/07/07 20:56:08;;;;;;;;;;;25.50;41.70;;;;;;8467771;28;19912;-44
2022/07/07 21:00:09;;;;;;;;;;;25.40;41.60;;;;;;8467489;28;19918;-44
2022/07/07 21:04:09;;;;;;;;;;;25.40;41.60;;;;;;8467271;28;20373;-44
2022/07/07 21:08:10;;;;;;;;;;;25.40;41.60;;;;;;8466703;28;19918;-43
2022/07/07 21:12:11;;;;;;;;;;;25.40;41.60;;;;;;8466913;28;19964;-44
2022/07/07 21:16:11;;;;;;;;;;;25.40;41.70;;;;;;8467128;28;19911;-45
2022/07/07 21:20:12;;;;;;;;;;;25.40;41.70;;;;;;8466277;28;19912;-43
2022/07/07 21:24:13;;;;;;;;;;;25.40;41.70;;;;;;8466738;28;20376;-44
2022/07/07 21:28:13;;;;;;;;;;;25.40;41.70;;;;;;8466615;28;19908;-44
2022/07/07 21:32:14;;;;;;;;;;;25.30;41.60;;;;;;8465987;28;19919;-43
2022/07/07 21:36:14;;;;;;;;;;;25.30;41.60;;;;;;8447790;28;19919;-44
2022/07/07 21:40:15;;;;;;;;;;;25.40;41.70;;;;;;8466149;28;19919;-43
2022/07/07 21:44:15;;;;;;;;;;;25.40;41.70;;;;;;8465663;28;20360;-44
2022/07/07 21:48:16;;;;;;;;;;;25.30;41.60;;;;;;8465839;28;20333;-44
2022/07/07 21:52:17;;;;;;;;;;;25.30;41.60;;;;;;8466150;28;20376;-44
2022/07/07 21:56:18;;;;;;;;;;;25.30;41.70;;;;;;8465211;28;19919;-44
2022/07/07 22:00:19;;;;;;;;;;;25.30;41.60;;;;;;8464603;28;19918;-44
2022/07/07 22:08:38;;;;;;;;;;;25.30;41.70;;;;;;8463699;28;19919;-43
2022/07/07 22:12:38;;;;;;;;;;;25.20;41.60;;;;;;8464901;28;20519;-44
2022/07/07 22:16:39;;;;;;;;;;;25.20;41.60;;;;;;8464698;28;19957;-43
2022/07/07 22:20:39;;;;;;;;;;;25.20;41.60;;;;;;8464999;28;19957;-44
2022/07/07 22:24:40;;;;;;;;;;;25.20;41.60;;;;;;8464772;28;19917;-43
2022/07/07 22:28:40;;;;;;;;;;;25.20;41.60;;;;;;8463951;28;20380;-44
2022/07/07 22:32:41;;;;;;;;;;;25.20;41.60;;;;;;8464309;28;19927;-42
2022/07/07 22:36:41;;;;;;;;;;;25.20;41.70;;;;;;8464698;28;19916;-43
2022/07/07 22:40:42;;;;;;;;;;;25.20;41.70;;;;;;8463804;28;19914;-43
2022/07/07 22:44:43;;;;;;;;;;;25.20;41.70;;;;;;8464349;28;19911;-43
2022/07/07 22:48:43;;;;;;;;;;;25.20;41.70;;;;;;8464132;28;19915;-42
2022/07/07 22:52:44;;;;;;;;;;;25.20;41.70;;;;;;8463584;28;20019;-42
2022/07/07 22:56:44;;;;;;;;;;;25.10;41.70;;;;;;8463805;28;20395;-43
2022/07/07 23:00:45;;;;;;;;;;;25.20;41.70;;;;;;8463696;28;20008;-44
2022/07/07 23:04:46;;;;;;;;;;;25.10;41.60;;;;;;8463222;28;20410;-42
2022/07/07 23:08:46;;;;;;;;;;;25.10;41.70;;;;;;8463240;28;19951;-42
2022/07/07 23:12:46;;;;;;;;;;;25.10;41.70;;;;;;8463621;28;19919;-44
2022/07/07 23:16:47;;;;;;;;;;;25.10;41.70;;;;;;8463030;28;19912;-42
2022/07/07 23:20:48;;;;;;;;;;;25.10;41.70;;;;;;8463294;28;19991;-43
2022/07/07 23:24:48;;;;;;;;;;;25.10;41.70;;;;;;8463383;28;20482;-42